Time;durP1;ratioP1;P1;durP2;ratioP2;P2;SDS_P1;SDS_P2;PMS_P1;PMS_P2;Temp;Humidity;BMP_temperature;BMP_pressure;BME280_temperature;BME280_humidity;BME280_pressure;Samples;Min_cycle;Max_cycle;Signal;HPM_P1;HPM_P2
2020/12/29 00:00:53;;;;;;;19.20;17.67;;;;;;;1.91;72.12;96795.03;10503666;28;20072;-63
2020/12/29 00:05:55;;;;;;;18.08;16.58;;;;;;;1.82;72.37;96799.81;10502231;28;20040;-64
2020/12/29 00:10:58;;;;;;;20.25;18.55;;;;;;;1.83;72.49;96806.69;10484151;28;20486;-65
2020/12/29 00:15:59;;;;;;;20.40;18.35;;;;;;;1.69;72.83;96802.16;10501394;28;20171;-65
2020/12/29 00:21:00;;;;;;;21.92;20.02;;;;;;;1.86;73.08;96807.38;10501709;28;20040;-63
2020/12/29 00:26:01;;;;;;;22.70;20.70;;;;;;;1.94;72.11;96817.34;10483726;28;20047;-64
2020/12/29 00:31:02;;;;;;;20.98;19.17;;;;;;;1.86;72.74;96820.31;10482614;28;20089;-65
2020/12/29 00:36:05;;;;;;;22.05;20.25;;;;;;;1.81;73.10;96826.63;10498574;28;20533;-65
2020/12/29 00:41:08;;;;;;;24.30;21.38;;;;;;;1.40;73.65;96832.81;10499686;28;20120;-65
2020/12/29 00:46:12;;;;;;;25.10;22.50;;;;;;;1.47;74.17;96841.16;10500092;28;20469;-65
2020/12/29 00:51:18;;;;;;;22.63;20.42;;;;;;;1.64;74.03;96851.56;10498659;28;20071;-64
2020/12/29 00:56:27;;;;;;;23.58;21.55;;;;;;;1.88;73.21;96862.50;10482592;28;20044;-65
2020/12/29 01:01:31;;;;;;;22.83;20.63;;;;;;;1.96;72.51;96865.56;10481037;28;20037;-65
2020/12/29 01:07:03;;;;;;;23.92;21.48;;;;;;;1.85;72.83;96860.06;10428870;28;20177;-65
2020/12/29 01:12:04;;;;;;;23.05;21.10;;;;;;;1.80;73.02;96853.44;10499323;28;20045;-65
2020/12/29 01:17:06;;;;;;;24.00;21.58;;;;;;;1.78;73.47;96850.91;10498877;28;20052;-65
2020/12/29 01:22:07;;;;;;;23.25;21.15;;;;;;;1.63;73.22;96852.47;10498678;28;20072;-65
2020/12/29 01:27:08;;;;;;;23.15;21.25;;;;;;;1.66;73.48;96848.91;10499166;28;20037;-65
2020/12/29 01:32:10;;;;;;;24.40;22.17;;;;;;;1.50;73.56;96828.91;10480490;28;20052;-65
2020/12/29 01:37:11;;;;;;;22.98;20.90;;;;;;;1.37;73.32;96845.91;10498964;28;20101;-64
2020/12/29 01:42:12;;;;;;;22.55;20.48;;;;;;;1.23;73.67;96825.84;10497976;28;20448;-65
2020/12/29 01:47:14;;;;;;;23.85;21.42;;;;;;;1.31;73.62;96824.66;10497958;28;20064;-65
2020/12/29 01:52:29;;;;;;;22.08;20.08;;;;;;;1.20;73.57;96838.94;10498112;28;20074;-66
2020/12/29 01:57:31;;;;;;;22.63;20.02;;;;;;;1.14;74.00;96833.19;10504828;22;20374;-69
2020/12/29 02:02:33;;;;;;;22.05;20.00;;;;;;;1.38;73.08;96834.66;10545843;28;20051;-69
2020/12/29 02:07:36;;;;;;;21.20;19.30;;;;;;;0.96;73.53;96842.59;10548634;28;20059;-69
2020/12/29 02:12:37;;;;;;;22.45;20.42;;;;;;;1.04;73.67;96855.19;10549728;28;20080;-68
2020/12/29 02:17:38;;;;;;;21.88;19.85;;;;;;;0.84;73.60;96854.34;10549085;28;20386;-69
2020/12/29 02:22:39;;;;;;;20.65;18.70;;;;;;;0.69;73.63;96861.00;10548433;28;20040;-68
2020/12/29 02:27:47;;;;;;;21.20;19.00;;;;;;;0.72;73.44;96860.88;10548105;28;20040;-68
2020/12/29 02:32:48;;;;;;;22.35;19.80;;;;;;;0.54;73.91;96853.91;10548701;28;20135;-68
2020/12/29 02:37:49;;;;;;;19.70;18.02;;;;;;;0.46;73.57;96846.47;10546635;28;20127;-67
2020/12/29 02:42:50;;;;;;;19.85;18.15;;;;;;;0.45;73.76;96862.91;10548062;28;20113;-68
2020/12/29 02:47:51;;;;;;;20.45;18.65;;;;;;;0.46;73.11;96887.00;10548330;28;20413;-69
2020/12/29 02:52:52;;;;;;;21.83;19.67;;;;;;;0.20;73.49;96895.81;10549878;28;20119;-68
2020/12/29 02:57:54;;;;;;;20.77;18.90;;;;;;;0.02;73.61;96893.97;10548834;28;20070;-69
2020/12/29 03:02:55;;;;;;;20.77;18.70;;;;;;;-0.07;73.83;96888.25;10548880;28;20043;-68
2020/12/29 03:07:56;;;;;;;19.23;17.45;;;;;;;-0.09;74.35;96896.97;10548117;28;20040;-69
2020/12/29 03:12:57;;;;;;;21.83;19.83;;;;;;;-0.19;73.72;96905.97;10549588;28;20047;-69
2020/12/29 03:17:58;;;;;;;20.52;18.48;;;;;;;-0.09;74.04;96896.97;10547781;28;20060;-68
2020/12/29 03:23:00;;;;;;;21.00;18.95;;;;;;;0.01;73.73;96905.22;10547347;28;20095;-70
2020/12/29 03:28:01;;;;;;;19.77;18.05;;;;;;;-0.42;74.24;96914.59;10546645;28;20051;-69
2020/12/29 03:33:02;;;;;;;20.30;18.27;;;;;;;-0.23;74.43;96912.16;10547816;28;20058;-70
2020/12/29 03:38:03;;;;;;;19.80;17.08;;;;;;;-0.27;74.29;96921.75;10546672;28;20090;-69
2020/12/29 03:43:05;;;;;;;19.42;17.63;;;;;;;-0.64;74.39;96910.25;10546847;28;20185;-69
2020/12/29 03:48:08;;;;;;;22.90;17.10;;;;;;;-0.82;75.06;96916.91;10545154;28;20066;-69
2020/12/29 03:53:10;;;;;;;19.20;17.40;;;;;;;-0.34;74.38;96934.06;10544639;28;20044;-68
2020/12/29 03:58:11;;;;;;;20.42;18.42;;;;;;;-0.25;74.43;96943.19;10546851;28;20044;-69
2020/12/29 04:03:12;;;;;;;19.42;17.42;;;;;;;-0.44;74.37;96935.31;10546366;28;20036;-69
2020/12/29 04:08:13;;;;;;;21.17;18.40;;;;;;;-0.87;74.99;96933.47;10548177;28;20048;-69
2020/12/29 04:13:15;;;;;;;20.67;18.67;;;;;;;-0.76;75.08;96939.06;10546020;28;20497;-68
2020/12/29 04:18:16;;;;;;;18.77;16.98;;;;;;;-0.82;75.40;96942.69;10546870;28;20446;-68
2020/12/29 04:23:17;;;;;;;12.40;11.20;;;;;;;-0.44;74.13;96949.94;10545181;28;20086;-68
2020/12/29 04:28:18;;;;;;;10.45;9.52;;;;;;;0.26;70.72;96954.97;10547151;28;20047;-69
2020/12/29 04:33:19;;;;;;;9.80;8.90;;;;;;;0.43;69.74;96952.53;10544521;28;20089;-68
2020/12/29 04:38:21;;;;;;;8.95;8.18;;;;;;;0.67;69.10;96957.63;10545510;28;20071;-69
2020/12/29 04:43:22;;;;;;;9.77;8.88;;;;;;;0.33;69.80;96951.25;10543880;28;20382;-70
2020/12/29 04:48:23;;;;;;;9.98;8.98;;;;;;;0.26;70.52;96954.97;10549046;28;20082;-69
2020/12/29 04:53:25;;;;;;;10.07;9.15;;;;;;;0.06;70.76;96958.34;10544423;28;20039;-69
2020/12/29 04:58:29;;;;;;;12.05;10.98;;;;;;;-0.18;71.37;96960.13;10549873;28;20047;-69
2020/12/29 05:03:41;;;;;;;12.00;10.82;;;;;;;0.07;71.93;96972.09;10543254;28;20051;-69
2020/12/29 05:08:44;;;;;;;14.75;13.45;;;;;;;0.05;71.58;96977.34;10543252;28;20063;-69
2020/12/29 05:13:46;;;;;;;16.83;15.27;;;;;;;-0.06;72.14;96977.72;10542852;28;20044;-69
2020/12/29 05:18:49;;;;;;;18.40;16.52;;;;;;;0.07;72.21;96972.94;10523577;28;20098;-69
2020/12/29 05:23:51;;;;;;;20.13;18.23;;;;;;;0.29;71.21;96980.69;10543401;28;20089;-68
2020/12/29 05:28:52;;;;;;;20.88;18.50;;;;;;;-0.09;72.10;96977.00;10541055;28;20550;-69
2020/12/29 05:33:53;;;;;;;20.60;17.60;;;;;;;-0.08;72.23;96982.13;10541024;28;20486;-69
2020/12/29 05:38:56;;;;;;;22.15;19.85;;;;;;;-0.26;72.96;96988.81;10541697;28;20044;-69
2020/12/29 05:44:03;;;;;;;23.15;20.90;;;;;;;-0.15;72.43;96984.97;10525895;28;20036;-68
2020/12/29 05:49:05;;;;;;;24.30;19.45;;;;;;;-0.28;72.44;96987.19;10541297;28;20070;-69
2020/12/29 05:54:09;;;;;;;24.60;21.63;;;;;;;-0.32;72.96;96996.78;10541340;28;20055;-68
2020/12/29 05:59:12;;;;;;;27.65;21.25;;;;;;;-0.62;73.25;96998.75;10540679;28;20051;-68
2020/12/29 06:04:20;;;;;;;29.33;21.23;;;;;;;-0.75;73.15;97005.25;10540211;28;20052;-69
2020/12/29 06:09:22;;;;;;;27.27;21.45;;;;;;;-0.42;73.10;97004.91;10538318;28;20074;-68
2020/12/29 06:14:25;;;;;;;27.98;21.90;;;;;;;-0.73;73.93;97016.31;10540965;28;20048;-70
2020/12/29 06:19:30;;;;;;;24.90;21.15;;;;;;;-0.52;73.16;97028.47;10539108;28;20048;-69
2020/12/29 06:24:34;;;;;;;26.67;21.25;;;;;;;-0.65;73.58;97042.69;10540843;28;20068;-68
2020/12/29 06:29:45;;;;;;;23.40;21.00;;;;;;;-0.59;73.92;97044.22;10538788;28;20101;-68
2020/12/29 06:34:47;;;;;;;27.92;21.30;;;;;;;-0.52;73.27;97045.69;10539261;28;20040;-69
2020/12/29 06:39:53;;;;;;;21.30;19.13;;;;;;;-0.47;73.40;97036.06;10538741;28;20094;-67
2020/12/29 06:44:56;;;;;;;18.38;16.48;;;;;;;-0.31;72.36;97041.47;10539879;28;20082;-69
2020/12/29 06:49:57;;;;;;;17.92;16.10;;;;;;;0.13;71.71;97039.00;10547241;28;20036;-68
2020/12/29 06:55:00;;;;;;;16.35;14.85;;;;;;;-0.07;71.73;97042.34;10546067;28;20105;-68
2020/12/29 07:00:10;;;;;;;9.98;9.07;;;;;;;0.22;71.60;97046.41;10544878;28;20386;-68
2020/12/29 07:05:14;;;;;;;6.43;5.82;;;;;;;0.94;69.37;97044.41;10546639;28;20113;-68
2020/12/29 07:10:16;;;;;;;7.50;6.80;;;;;;;1.53;67.47;97053.13;10546802;28;20050;-68
2020/12/29 07:15:23;;;;;;;9.65;8.65;;;;;;;1.39;67.36;97052.88;10548388;28;20134;-69
2020/12/29 07:20:27;;;;;;;8.32;7.53;;;;;;;1.31;68.04;97062.72;10546807;28;20040;-68
2020/12/29 07:25:30;;;;;;;7.80;6.97;;;;;;;1.37;67.75;97076.22;10546285;28;20067;-68
2020/12/29 07:30:34;;;;;;;6.80;6.20;;;;;;;1.27;68.08;97083.53;10546325;28;20078;-67
2020/12/29 07:35:39;;;;;;;5.80;5.28;;;;;;;1.76;66.62;97083.19;10547927;28;20420;-68
2020/12/29 07:40:41;;;;;;;5.47;4.88;;;;;;;1.80;66.59;97087.34;10561055;28;20413;-69
2020/12/29 07:45:42;;;;;;;4.78;4.30;;;;;;;1.87;66.39;97101.72;10545040;28;20497;-69
2020/12/29 07:50:44;;;;;;;4.57;4.18;;;;;;;1.77;66.28;97105.59;10545535;28;20102;-69
2020/12/29 07:55:46;;;;;;;4.65;4.25;;;;;;;1.66;66.79;97123.34;10544637;28;20048;-68
2020/12/29 08:00:48;;;;;;;5.53;5.03;;;;;;;1.33;67.87;97130.75;10527838;22;20465;-66
2020/12/29 08:05:49;;;;;;;5.47;4.68;;;;;;;1.34;68.02;97141.06;10500404;28;20044;-66
2020/12/29 08:10:50;;;;;;;4.60;4.10;;;;;;;1.48;67.78;97154.28;10500314;28;20045;-66
2020/12/29 08:15:54;;;;;;;7.28;6.68;;;;;;;1.63;67.50;97159.72;10500237;28;20059;-66
2020/12/29 08:20:58;;;;;;;11.65;10.57;;;;;;;1.59;67.37;97165.94;10501740;28;20405;-66
2020/12/29 08:26:02;;;;;;;10.95;9.95;;;;;;;1.58;67.41;97192.72;10499792;28;20128;-66
2020/12/29 08:31:06;;;;;;;10.95;9.85;;;;;;;1.71;67.52;97201.69;10499495;28;20448;-66
2020/12/29 08:36:10;;;;;;;11.30;10.07;;;;;;;1.48;67.72;97206.06;10498209;28;20052;-66
2020/12/29 08:41:24;;;;;;;10.18;9.05;;;;;;;1.31;68.52;97198.13;10498730;28;20045;-66
2020/12/29 08:46:25;;;;;;;2.97;2.53;;;;;;;2.02;66.64;97202.06;10499023;28;20149;-66
2020/12/29 08:51:29;;;;;;;1.75;1.58;;;;;;;2.71;64.67;97198.19;10499005;28;20041;-66
2020/12/29 08:56:30;;;;;;;1.67;1.58;;;;;;;3.10;63.85;97202.44;10499280;28;20132;-66
2020/12/29 09:01:32;;;;;;;1.70;1.50;;;;;;;3.27;63.36;97212.88;10498638;28;20072;-66
2020/12/29 09:06:34;;;;;;;2.05;1.30;;;;;;;3.26;63.47;97214.63;10497381;28;20076;-65
2020/12/29 09:11:36;;;;;;;1.40;1.30;;;;;;;3.42;62.88;97229.50;10497580;28;20056;-65
2020/12/29 09:16:37;;;;;;;1.30;1.20;;;;;;;3.64;62.68;97239.69;10498293;28;20553;-66
2020/12/29 09:21:38;;;;;;;1.33;1.10;;;;;;;3.53;63.58;97240.19;10497742;28;20128;-66
2020/12/29 09:26:48;;;;;;;1.73;1.20;;;;;;;3.80;63.06;97243.19;10498614;28;20451;-66
2020/12/29 09:31:53;;;;;;;1.30;1.05;;;;;;;3.95;62.04;97247.66;10498083;28;20136;-66
2020/12/29 09:36:55;;;;;;;1.10;1.00;;;;;;;4.00;62.29;97252.63;10497232;28;20501;-66
2020/12/29 09:41:56;;;;;;;1.23;1.10;;;;;;;4.22;61.91;97257.59;10498151;28;20045;-66
2020/12/29 09:46:57;;;;;;;1.15;1.05;;;;;;;4.62;60.24;97261.59;10497322;28;20037;-66
2020/12/29 09:51:59;;;;;;;0.73;0.70;;;;;;;4.52;61.31;97265.59;10504475;28;20048;-66
2020/12/29 09:57:01;;;;;;;1.02;0.90;;;;;;;4.64;61.02;97269.28;10497800;28;20455;-66
2020/12/29 10:02:02;;;;;;;0.85;0.80;;;;;;;5.02;59.34;97269.88;10496780;28;20127;-66
2020/12/29 10:07:03;;;;;;;1.13;0.68;;;;;;;5.14;59.15;97278.81;10497796;28;20501;-65
2020/12/29 10:12:04;;;;;;;1.85;0.60;;;;;;;5.31;58.65;97283.94;10497829;28;20116;-67
2020/12/29 10:17:05;;;;;;;1.17;0.50;;;;;;;5.33;58.48;97289.91;10496596;28;20071;-66
2020/12/29 10:22:06;;;;;;;0.63;0.40;;;;;;;5.51;57.55;97290.66;10497807;28;20127;-66
2020/12/29 10:27:08;;;;;;;0.80;0.60;;;;;;;5.63;57.83;97299.59;10505153;28;20044;-66
2020/12/29 10:32:09;;;;;;;0.98;0.50;;;;;;;5.74;56.69;97292.81;10504529;28;20072;-66
2020/12/29 10:37:13;;;;;;;1.73;0.68;;;;;;;5.68;56.29;97294.94;10504406;28;20094;-67
2020/12/29 10:42:14;;;;;;;0.85;0.60;;;;;;;5.60;56.49;97304.94;10504067;28;20066;-65
2020/12/29 10:47:16;;;;;;;0.60;0.60;;;;;;;5.60;57.35;97311.00;10503994;28;20106;-65
2020/12/29 10:52:17;;;;;;;0.90;0.60;;;;;;;5.57;57.44;97312.00;10503969;28;20128;-66
2020/12/29 10:57:19;;;;;;;1.42;0.75;;;;;;;5.85;56.60;97305.28;10503310;28;20123;-66
2020/12/29 11:02:20;;;;;;;1.20;0.50;;;;;;;5.76;56.80;97305.78;10503323;28;20040;-66
2020/12/29 11:07:21;;;;;;;2.13;0.68;;;;;;;5.83;57.40;97315.75;10503122;28;20072;-66
2020/12/29 11:12:22;;;;;;;0.77;0.65;;;;;;;5.96;57.67;97317.72;10503196;28;20045;-66
2020/12/29 11:17:23;;;;;;;1.27;0.75;;;;;;;7.92;53.67;97329.41;10502672;28;20446;-66
2020/12/29 11:22:24;;;;;;;0.80;0.52;;;;;;;9.79;49.58;97322.81;10502314;28;20502;-66
2020/12/29 11:27:26;;;;;;;1.55;0.63;;;;;;;11.36;45.42;97337.28;10502754;28;20047;-66
2020/12/29 11:32:27;;;;;;;1.10;0.57;;;;;;;9.24;49.01;97358.16;10502920;28;20045;-68
2020/12/29 11:37:28;;;;;;;0.90;0.70;;;;;;;7.74;52.92;97370.63;10502715;28;20476;-66
2020/12/29 11:42:29;;;;;;;0.50;0.50;;;;;;;7.03;54.04;97377.56;10502157;28;20124;-67
2020/12/29 11:47:30;;;;;;;0.60;0.57;;;;;;;6.70;55.08;97390.00;10502583;28;20072;-65
2020/12/29 11:52:31;;;;;;;0.88;0.68;;;;;;;6.60;55.29;97399.28;10501476;28;20494;-66
2020/12/29 11:57:32;;;;;;;0.90;0.70;;;;;;;6.48;55.48;97401.69;10501858;28;20471;-65
2020/12/29 12:02:34;;;;;;;0.90;0.80;;;;;;;6.38;55.75;97403.16;10500683;28;20047;-65
2020/12/29 12:07:35;;;;;;;1.00;0.70;;;;;;;6.31;56.22;97407.03;10500555;28;20072;-66
2020/12/29 12:12:36;;;;;;;0.55;0.55;;;;;;;6.20;56.99;97425.91;10500572;28;20040;-66
2020/12/29 12:17:38;;;;;;;1.00;0.75;;;;;;;6.06;57.89;97437.09;10499981;28;20075;-65
2020/12/29 12:22:39;;;;;;;1.88;0.80;;;;;;;6.28;57.17;97444.53;10500589;28;20481;-66
2020/12/29 12:27:40;;;;;;;1.58;0.70;;;;;;;6.04;57.75;97453.75;10500055;28;20048;-67
2020/12/29 12:32:41;;;;;;;1.13;0.68;;;;;;;6.00;57.27;97462.66;10500343;28;20071;-66
2020/12/29 12:37:43;;;;;;;0.45;0.30;;;;;;;6.22;55.46;97470.97;10500283;28;20045;-66
2020/12/29 12:42:44;;;;;;;0.50;0.30;;;;;;;6.11;54.84;97482.91;10499466;28;20556;-66
2020/12/29 12:47:45;;;;;;;0.57;0.28;;;;;;;6.04;54.74;97496.31;10497737;28;20449;-67
2020/12/29 12:52:47;;;;;;;0.20;0.20;;;;;;;6.11;54.63;97488.13;10499117;28;20406;-65
2020/12/29 12:57:48;;;;;;;0.40;0.30;;;;;;;6.10;55.26;97495.13;10498835;28;20409;-66
2020/12/29 13:02:49;;;;;;;0.45;0.28;;;;;;;6.17;55.24;97500.84;10498594;28;20373;-65
2020/12/29 13:07:51;;;;;;;1.20;0.30;;;;;;;6.12;54.74;97511.53;10499177;28;20044;-65
2020/12/29 13:12:52;;;;;;;0.45;0.30;;;;;;;6.05;54.95;97528.44;10498416;28;20036;-64
2020/12/29 13:17:53;;;;;;;0.30;0.30;;;;;;;6.10;54.48;97538.63;10497877;28;20060;-66
2020/12/29 13:22:54;;;;;;;0.60;0.35;;;;;;;6.00;55.83;97559.13;10497506;28;20037;-66
2020/12/29 13:27:56;;;;;;;0.52;0.20;;;;;;;5.89;55.88;97566.63;10498154;28;20047;-65
2020/12/29 13:32:58;;;;;;;0.30;0.30;;;;;;;5.93;55.69;97570.78;10498691;28;20094;-65
2020/12/29 13:37:59;;;;;;;1.08;0.50;;;;;;;6.10;55.75;97602.06;10497632;28;20086;-65
2020/12/29 13:43:00;;;;;;;1.25;0.30;;;;;;;5.99;54.90;97610.44;10497229;28;20044;-64
2020/12/29 13:48:01;;;;;;;0.30;0.30;;;;;;;5.86;55.31;97618.94;10497219;28;20067;-66
2020/12/29 13:53:02;;;;;;;0.43;0.30;;;;;;;5.72;55.70;97633.53;10497167;28;20075;-65
2020/12/29 13:58:03;;;;;;;0.20;0.20;;;;;;;5.52;54.93;97650.16;10501962;28;20045;-64
2020/12/29 14:03:05;;;;;;;0.50;0.35;;;;;;;5.67;54.62;97659.00;10504813;28;20068;-64
2020/12/29 14:08:06;;;;;;;0.80;0.20;;;;;;;5.37;56.11;97663.94;10505902;28;20463;-65
2020/12/29 14:13:07;;;;;;;0.80;0.30;;;;;;;5.36;55.25;97670.06;10506192;28;20444;-65
2020/12/29 14:18:08;;;;;;;0.30;0.30;;;;;;;5.36;55.48;97688.31;10505971;28;20452;-65
2020/12/29 14:23:10;;;;;;;1.77;0.50;;;;;;;5.26;55.77;97694.84;10506155;28;20041;-65
2020/12/29 14:28:11;;;;;;;0.30;0.30;;;;;;;5.18;56.30;97707.38;10504523;28;20456;-65
2020/12/29 14:33:12;;;;;;;0.20;0.20;;;;;;;5.19;56.19;97711.72;10504201;28;20068;-65
2020/12/29 14:38:13;;;;;;;0.47;0.30;;;;;;;5.14;56.28;97724.09;10503986;28;20048;-65
2020/12/29 14:43:15;;;;;;;0.57;0.50;;;;;;;4.98;56.82;97727.41;10502204;28;20037;-65
2020/12/29 14:48:17;;;;;;;0.73;0.50;;;;;;;5.07;56.95;97744.38;10503615;28;20110;-65
2020/12/29 14:53:18;;;;;;;0.40;0.40;;;;;;;4.95;56.68;97745.75;10503413;28;20048;-64
2020/12/29 14:58:19;;;;;;;0.57;0.35;;;;;;;4.80;57.07;97754.28;10502581;28;20064;-64
2020/12/29 15:03:20;;;;;;;0.38;0.30;;;;;;;4.64;57.91;97767.13;10502844;28;20433;-64
2020/12/29 15:08:22;;;;;;;1.38;0.32;;;;;;;4.59;58.11;97795.09;10501720;28;20076;-66
2020/12/29 15:13:23;;;;;;;0.70;0.50;;;;;;;4.52;58.08;97804.94;10503065;28;20041;-65
2020/12/29 15:18:24;;;;;;;0.43;0.43;;;;;;;4.46;58.34;97810.38;10500944;28;20143;-64
2020/12/29 15:23:25;;;;;;;1.10;0.43;;;;;;;4.53;58.16;97827.44;10501970;28;20045;-66
2020/12/29 15:28:26;;;;;;;1.05;0.40;;;;;;;4.38;58.71;97851.47;10502848;28;20079;-65
2020/12/29 15:33:29;;;;;;;0.60;0.50;;;;;;;4.34;58.65;97860.34;10502474;28;20406;-65
2020/12/29 15:38:30;;;;;;;0.95;0.50;;;;;;;4.11;59.36;97873.41;10501670;28;20511;-66
2020/12/29 15:43:31;;;;;;;0.60;0.47;;;;;;;4.40;58.10;97877.44;10501393;28;20105;-65
2020/12/29 15:48:33;;;;;;;1.13;0.60;;;;;;;4.22;59.17;97894.66;10501185;28;20509;-65
2020/12/29 15:53:34;;;;;;;0.60;0.50;;;;;;;4.36;58.43;97907.94;10501673;28;20040;-65
2020/12/29 15:58:35;;;;;;;0.88;0.70;;;;;;;4.37;58.50;97921.78;10500447;28;20494;-65
2020/12/29 16:03:38;;;;;;;1.20;0.70;;;;;;;4.24;58.77;97916.22;10500531;28;20071;-64
2020/12/29 16:08:40;;;;;;;0.60;0.60;;;;;;;4.28;58.80;97938.59;10500674;28;20048;-64
2020/12/29 16:13:41;;;;;;;0.70;0.60;;;;;;;4.26;58.76;97951.69;10500672;28;20044;-66
2020/12/29 16:18:42;;;;;;;1.30;0.65;;;;;;;4.14;59.21;97956.50;10500059;28;20075;-64
2020/12/29 16:23:43;;;;;;;0.68;0.60;;;;;;;4.29;59.05;97964.56;10499630;28;20443;-64
2020/12/29 16:28:45;;;;;;;0.82;0.70;;;;;;;4.39;58.77;97979.81;10498269;28;20049;-64
2020/12/29 16:33:50;;;;;;;0.47;0.40;;;;;;;4.53;58.20;97987.91;10499813;28;20044;-64
2020/12/29 16:38:51;;;;;;;0.60;0.60;;;;;;;4.54;58.26;98000.00;10499765;28;20460;-65
2020/12/29 16:43:53;;;;;;;0.65;0.65;;;;;;;4.77;57.57;98014.69;10497553;28;20052;-65
2020/12/29 16:48:55;;;;;;;0.77;0.75;;;;;;;4.66;58.00;98030.75;10498879;28;20053;-65
2020/12/29 16:53:56;;;;;;;1.00;0.90;;;;;;;4.61;58.12;98032.69;10499149;28;20449;-66
2020/12/29 16:58:59;;;;;;;0.85;0.85;;;;;;;4.47;58.77;98051.44;10498409;28;20086;-66
2020/12/29 17:04:00;;;;;;;1.77;1.48;;;;;;;4.80;57.77;98061.41;10499573;28;20040;-66
2020/12/29 17:09:03;;;;;;;1.77;1.42;;;;;;;4.62;57.89;98060.38;10498833;28;20453;-67
2020/12/29 17:14:05;;;;;;;1.48;1.25;;;;;;;4.46;59.07;98070.53;10498400;28;20040;-68
2020/12/29 17:19:06;;;;;;;1.70;1.17;;;;;;;4.45;58.64;98081.84;10498173;28;20044;-66
2020/12/29 17:24:07;;;;;;;1.50;1.20;;;;;;;4.29;59.26;98089.41;10498041;28;20098;-66
2020/12/29 17:29:08;;;;;;;1.63;1.05;;;;;;;4.43;58.67;98099.28;10480323;28;20448;-66
2020/12/29 17:34:10;;;;;;;1.08;0.80;;;;;;;4.60;57.84;98097.78;10497226;28;20036;-66
2020/12/29 17:39:14;;;;;;;0.80;0.68;;;;;;;4.47;57.84;98108.69;10497907;28;20041;-68
2020/12/29 17:44:16;;;;;;;1.15;0.75;;;;;;;4.67;57.29;98114.84;10498037;28;20059;-65
2020/12/29 17:49:18;;;;;;;0.80;0.70;;;;;;;4.53;57.77;98107.59;10497168;28;20509;-66
2020/12/29 17:54:21;;;;;;;1.50;0.88;;;;;;;4.52;57.73;98111.09;10498101;28;20036;-66
2020/12/29 17:59:22;;;;;;;1.27;0.90;;;;;;;4.38;58.14;98126.34;10497146;28;20106;-66
2020/12/29 18:04:24;;;;;;;1.50;1.00;;;;;;;4.54;57.00;98127.50;10497134;28;20102;-65
2020/12/29 18:09:25;;;;;;;1.45;1.30;;;;;;;4.25;57.93;98134.63;10497069;28;20048;-65
2020/12/29 18:14:26;;;;;;;0.98;0.77;;;;;;;4.38;57.30;98129.81;10496421;28;20041;-65
2020/12/29 18:19:28;;;;;;;1.50;0.95;;;;;;;4.16;57.70;98134.97;10497228;28;20063;-65
2020/12/29 18:24:29;;;;;;;1.33;0.80;;;;;;;4.06;57.69;98154.38;10497384;28;20472;-65
2020/12/29 18:29:30;;;;;;;1.30;0.90;;;;;;;4.08;57.58;98173.41;10497499;28;20462;-67
2020/12/29 18:34:31;;;;;;;0.80;0.63;;;;;;;3.91;57.94;98181.78;10496512;28;20045;-66
2020/12/29 18:39:34;;;;;;;0.80;0.77;;;;;;;3.86;57.90;98191.50;10496265;28;20089;-65
2020/12/29 18:44:36;;;;;;;0.73;0.60;;;;;;;3.61;58.35;98188.00;10499734;28;20040;-66
2020/12/29 18:49:37;;;;;;;1.05;0.70;;;;;;;3.59;58.26;98195.88;10504167;28;20090;-67
2020/12/29 18:54:38;;;;;;;1.08;0.93;;;;;;;3.80;57.52;98197.72;10503418;28;20470;-67
2020/12/29 18:59:40;;;;;;;1.67;1.08;;;;;;;3.77;57.77;98202.19;10503514;28;20177;-66
2020/12/29 19:04:41;;;;;;;1.00;0.85;;;;;;;3.69;58.16;98205.03;10504151;28;20041;-66
2020/12/29 19:09:42;;;;;;;0.98;0.85;;;;;;;3.68;57.72;98205.94;10502967;28;20044;-67
2020/12/29 19:14:44;;;;;;;0.82;0.82;;;;;;;3.78;57.26;98209.09;10502835;28;20071;-66
2020/12/29 19:19:45;;;;;;;1.23;0.98;;;;;;;3.33;58.91;98221.84;10502664;28;20132;-69
2020/12/29 19:24:46;;;;;;;1.33;1.23;;;;;;;3.42;58.91;98224.13;10502841;28;20375;-66
2020/12/29 19:29:47;;;;;;;1.50;1.20;;;;;;;3.43;58.75;98223.22;10502360;28;20044;-66
2020/12/29 19:34:50;;;;;;;1.40;1.13;;;;;;;3.17;59.57;98216.25;10502951;28;20044;-67
2020/12/29 19:39:52;;;;;;;1.95;1.15;;;;;;;3.01;59.94;98234.91;10502093;28;20068;-66
2020/12/29 19:44:53;;;;;;;2.42;1.20;;;;;;;2.95;60.13;98232.47;10501753;28;20470;-67
2020/12/29 19:49:54;;;;;;;1.85;1.13;;;;;;;2.78;60.26;98239.91;10501161;28;20040;-65
2020/12/29 19:54:56;;;;;;;2.15;1.30;;;;;;;2.67;60.35;98255.78;10499635;28;20068;-67
2020/12/29 19:59:57;;;;;;;1.55;1.25;;;;;;;2.18;61.53;98254.53;10517198;22;20112;-66
2020/12/29 20:04:58;;;;;;;1.92;1.40;;;;;;;2.10;61.77;98272.03;10508597;28;20033;-66
2020/12/29 20:09:59;;;;;;;1.83;0.90;;;;;;;2.36;61.11;98276.53;10507429;28;20091;-67
2020/12/29 20:15:00;;;;;;;2.08;1.40;;;;;;;2.23;61.42;98285.53;10491452;28;20075;-66
2020/12/29 20:20:04;;;;;;;2.38;1.80;;;;;;;1.89;61.73;98298.47;10505106;28;20087;-65
2020/12/29 20:25:06;;;;;;;1.85;1.42;;;;;;;1.74;62.16;98313.50;10507270;28;20068;-66
2020/12/29 20:30:07;;;;;;;2.10;1.30;;;;;;;1.98;61.53;98329.34;10506676;28;20106;-66
2020/12/29 20:35:09;;;;;;;1.77;1.40;;;;;;;1.86;61.62;98329.63;10507434;28;20105;-66
2020/12/29 20:40:10;;;;;;;1.92;1.25;;;;;;;1.75;61.83;98332.50;10508201;28;20040;-67
2020/12/29 20:45:11;;;;;;;1.73;1.33;;;;;;;1.53;62.35;98332.13;10488849;28;20049;-66
2020/12/29 20:50:14;;;;;;;2.40;1.60;;;;;;;1.33;62.68;98324.84;10505658;28;20083;-65
2020/12/29 20:55:15;;;;;;;6.47;5.97;;;;;;;1.39;62.68;98326.44;10505773;28;20045;-66
2020/12/29 21:00:17;;;;;;;4.43;3.13;;;;;;;1.05;63.31;98336.63;10485455;28;20055;-68
2020/12/29 21:05:19;;;;;;;2.45;1.30;;;;;;;1.55;61.67;98325.19;10503519;28;20067;-66
2020/12/29 21:10:20;;;;;;;1.20;0.88;;;;;;;1.99;60.05;98331.94;10522258;28;20060;-66
2020/12/29 21:15:24;;;;;;;2.95;1.23;;;;;;;2.00;60.08;98346.56;10507778;28;20044;-65
2020/12/29 21:20:25;;;;;;;2.08;1.13;;;;;;;2.05;59.86;98349.06;10508905;28;20101;-66
2020/12/29 21:25:27;;;;;;;1.15;0.98;;;;;;;1.93;59.96;98351.94;10507748;28;20044;-67
2020/12/29 21:30:28;;;;;;;2.20;1.17;;;;;;;2.00;59.65;98361.28;10507306;28;20044;-67
2020/12/29 21:35:33;;;;;;;1.52;1.20;;;;;;;1.99;59.45;98372.50;10506522;28;20067;-65
2020/12/29 21:40:34;;;;;;;2.58;1.20;;;;;;;1.56;60.82;98395.97;10506629;28;20040;-65
2020/12/29 21:45:35;;;;;;;1.67;1.40;;;;;;;1.58;60.64;98399.38;10488380;28;20041;-65
2020/12/29 21:50:38;;;;;;;2.10;1.40;;;;;;;1.66;60.61;98387.09;10505989;28;20070;-67
2020/12/29 21:55:39;;;;;;;2.22;1.55;;;;;;;1.72;59.74;98398.16;10504513;28;20059;-66
2020/12/29 22:00:43;;;;;;;2.05;1.48;;;;;;;1.13;61.50;98392.53;10504893;28;20557;-67
2020/12/29 22:05:44;;;;;;;1.48;1.00;;;;;;;1.35;61.10;98398.13;10503140;28;20048;-65
2020/12/29 22:10:49;;;;;;;1.50;1.05;;;;;;;1.39;60.83;98402.34;10504642;28;20100;-67
2020/12/29 22:15:50;;;;;;;2.25;1.20;;;;;;;1.33;60.89;98404.19;10486984;28;20127;-67
2020/12/29 22:20:51;;;;;;;1.80;1.10;;;;;;;1.37;60.65;98406.69;10512280;28;20089;-66
2020/12/29 22:25:53;;;;;;;3.08;1.50;;;;;;;1.36;60.85;98396.38;10495234;28;20051;-66
2020/12/29 22:30:54;;;;;;;2.90;1.70;;;;;;;1.51;60.33;98402.09;10511751;28;20045;-66
2020/12/29 22:35:55;;;;;;;3.35;1.83;;;;;;;0.91;61.71;98415.38;10512398;28;20074;-66
2020/12/29 22:40:56;;;;;;;2.58;2.05;;;;;;;0.94;61.86;98399.81;10512513;28;20040;-66
2020/12/29 22:46:08;;;;;;;2.42;1.55;;;;;;;1.08;61.52;98406.44;10476981;28;20076;-66
2020/12/29 22:51:11;;;;;;;1.80;1.48;;;;;;;0.94;61.80;98407.56;10509406;28;20044;-65
2020/12/29 22:56:16;;;;;;;2.33;1.63;;;;;;;1.18;60.92;98403.63;10507694;28;20045;-66
2020/12/29 23:01:29;;;;;;;1.95;1.40;;;;;;;1.17;61.01;98416.63;10490794;28;20036;-66
2020/12/29 23:06:36;;;;;;;1.25;1.10;;;;;;;0.90;61.38;98430.94;10511477;28;20560;-67
2020/12/29 23:11:42;;;;;;;1.45;1.20;;;;;;;1.11;61.11;98440.88;10508160;28;20037;-65
2020/12/29 23:16:43;;;;;;;2.65;1.30;;;;;;;0.81;61.91;98449.22;10490377;28;20531;-66
2020/12/29 23:21:44;;;;;;;1.58;1.27;;;;;;;0.60;62.47;98434.94;10507099;28;20040;-65
2020/12/29 23:26:45;;;;;;;2.97;1.80;;;;;;;0.63;62.89;98429.72;10506113;28;20068;-66